• Join FlightAware (Why Join?)
  • Login
  • US Flag 
02:39AM EDT


 

Airport Tracker/Info


-or-


 

Live Flight TrackerFlight Track Log ✈ AWI3808 ✈ 08-Apr-2013 ✈ KGSO - KPHL

Flight Track Log - Related Links

Times and Time Zones

All times are in EDT time to prevent confusion due to time zone crossing. See the AWI3808 flight status page for this flight to view local times or setup timezone preferences in your user account.

Time Position Orientation Groundspeed Altitude Reporting Facility
EDT Latitude Longitude Course Direction KTS MPH feet Rate Location/Type
03:17PM 36.1647 -79.7478 53° Northeast  Level FlightAware Approximate
03:17PM 36.0358 -79.8661 44° Northeast 256 295 7,200  Level Washington Center
03:18PM 36.2233 -79.6502 53° Northeast  Level FlightAware Approximate
03:18PM 36.1125 -79.8242 24° Northeast 281 323 9,100  Level Washington Center
03:19PM 36.2726 -79.5451 61° Northeast  Level FlightAware Approximate
03:19PM 36.1692 -79.7550 45° Northeast 301 346 10,900  Level Washington Center
03:20PM 36.3323 -79.4511 39° Northeast  Level FlightAware Approximate
03:20PM 36.2269 -79.6525 55° Northeast 334 384 13,100  Level Washington Center
03:21PM 36.3913 -79.3450 47° Northeast  Level FlightAware Approximate
03:21PM 36.2778 -79.5650 54° Northeast 343 395 15,100  Level Washington Center
03:22PM 36.4661 -79.2527 44° Northeast  Level FlightAware Approximate
03:22PM 36.3422 -79.4497 55° Northeast 351 404 17,200  Level Washington Center
03:23PM 36.3997 -79.3492 55° Northeast 357 411 18,700 1,500 Climbing Washington Center
03:24PM 36.4736 -79.2547 46° Northeast 363 418 20,200 1,380 Climbing Washington Center
03:25PM 36.5447 -79.1728 43° Northeast 374 430 21,500 1,320 Climbing Washington Center
03:26PM 36.6225 -79.0831 43° Northeast 379 436 22,900 1,260 Climbing Washington Center
03:27PM 36.6986 -78.9828 47° Northeast 385 443 24,100 1,020 Climbing Washington Center
03:28PM 36.7811 -78.8672 48° Northeast 401 461 25,000 420 Climbing Washington Center
03:29PM 36.8633 -78.7564 47° Northeast 416 479 25,000  Level Washington Center
03:30PM 36.9433 -78.6481 47° Northeast 421 484 25,000 60 Level Washington Center
03:31PM 37.0256 -78.5342 48° Northeast 427 491 25,200 420 Climbing Washington Center
03:32PM 37.1008 -78.4303 48° Northeast 435 501 25,900 660 Climbing Washington Center
03:33PM 37.1831 -78.3133 49° Northeast 440 506 26,600 540 Climbing Washington Center
03:34PM 37.2647 -78.1989 48° Northeast 440 506 27,000 180 Climbing Washington Center
03:35PM 37.3464 -78.0842 48° Northeast 440 506 27,000  Level Washington Center
03:36PM 37.4303 -77.9667 48° Northeast 440 506 27,000  Level Washington Center
03:37PM 37.5286 -77.8333 47° Northeast 457 526 27,000  Level Washington Center
03:38PM 37.6158 -77.7494 37° Northeast 452 520 27,000  Level Washington Center
03:39PM 37.7197 -77.6581 35° Northeast 452 520 27,000  Level Washington Center
03:40PM 37.8233 -77.5633 36° Northeast 452 520 27,000  Level Washington Center
03:41PM 37.9250 -77.4714 35° Northeast 452 520 27,000  Level Washington Center
03:42PM 38.0203 -77.3814 37° Northeast 452 520 27,000 -60 Level Washington Center
03:43PM 38.1236 -77.2864 36° Northeast 433 498 26,900 -60 Descending Washington Center
03:44PM 38.2189 -77.1986 36° Northeast 426 490 26,900  Level Washington Center
03:45PM 38.3158 -77.1081 36° Northeast 421 484 26,900  Level Washington Center
03:46PM 38.4128 -77.0200 35° Northeast 421 484 26,900 -540 Level Washington Center
03:47PM 38.5097 -76.9289 36° Northeast 421 484 25,900 -1,020 Descending Washington Center
03:48PM 38.6108 -76.8378 35° Northeast 431 496 24,900 -960 Descending Washington Center
03:49PM 38.7036 -76.7383 40° Northeast 436 502 24,000 -600 Descending Washington Center
03:50PM 38.7383 -76.5978 72° East 422 486 23,800 -1,440 Descending Washington Center
03:51PM 38.7686 -76.4517 75° East 415 478 21,200 -2,580 Descending Washington Center
03:52PM 38.7967 -76.3108 76° East 415 478 18,700 -2,460 Descending Washington Center
03:53PM 38.8244 -76.1778 75° East 394 453 16,300 -1,860 Descending Washington Center
03:54PM 38.8478 -76.0475 77° East 381 438 15,000 -660 Descending Washington Center
03:55PM 38.8733 -75.9328 74° East 354 407 15,000  Level Washington Center
03:56PM 38.9111 -75.8158 67° East 342 394 15,000  Level Washington Center
03:57PM 38.9903 -75.7411 36° Northeast 332 382 15,000 -780 Level Washington Center
03:59PM 39.1414 -75.6678 21° North 337 388 13,000 -1,380 Descending FAA TRACON SMA TRACON (SMA)
03:59PM 39.1717 -75.6664 North 337 388 12,300 -1,980 Descending FAA TRACON SMA TRACON (SMA)
03:59PM 39.2008 -75.6633 North 334 384 11,700 -2,100 Descending FAA TRACON SMA TRACON (SMA)
04:00PM 39.2347 -75.6597 North 320 368 10,900 -2,100 Descending FAA TRACON SMA TRACON (SMA)
04:00PM 39.2608 -75.6567 North 312 359 10,300 -1,200 Descending FAA TRACON SMA TRACON (SMA)
04:00PM 39.2861 -75.6481 15° North 304 350 10,100 -480 Descending FAA TRACON SMA TRACON (SMA)
04:01PM 39.3122 -75.6275 31° Northeast 300 345 10,000 -1,380 Descending FAA TRACON SMA TRACON (SMA)
04:01PM 39.3350 -75.6094 32° Northeast 298 343 9,200 -2,100 Descending FAA TRACON SMA TRACON (SMA)
04:01PM 39.3558 -75.5911 34° Northeast 303 349 8,600 -2,100 Descending FAA TRACON SMA TRACON (SMA)
04:02PM 39.3808 -75.5686 35° Northeast 303 349 7,800 -1,980 Descending FAA TRACON SMA TRACON (SMA)
04:02PM 39.3989 -75.5406 50° Northeast 290 334 7,300 -1,260 Descending FAA TRACON SMA TRACON (SMA)
04:02PM 39.4103 -75.5153 60° Northeast 296 341 7,000 -480 Descending FAA TRACON SMA TRACON (SMA)
04:03PM 39.4261 -75.4828 58° Northeast 271 312 7,000  Level FAA TRACON SMA TRACON (SMA)
04:03PM 39.4394 -75.4603 52° Northeast 256 295 7,000 -780 Level FAA TRACON SMA TRACON (SMA)
04:03PM 39.4511 -75.4361 58° Northeast 247 284 6,500 -1,380 Descending FAA TRACON SMA TRACON (SMA)
04:04PM 39.4625 -75.4128 58° Northeast 247 284 6,100 -780 Descending FAA TRACON SMA TRACON (SMA)
04:04PM 39.4750 -75.3842 60° Northeast 245 282 6,000 -180 Descending FAA TRACON SMA TRACON (SMA)
04:04PM 39.4869 -75.3614 56° Northeast 243 280 6,000  Level FAA TRACON SMA TRACON (SMA)
04:05PM 39.5003 -75.3342 58° Northeast 244 281 6,000 -180 Level FAA TRACON SMA TRACON (SMA)
04:05PM 39.5114 -75.3092 60° Northeast 245 282 5,900 -780 Descending FAA TRACON SMA TRACON (SMA)
04:05PM 39.5217 -75.2858 60° Northeast 243 280 5,500 -1,440 Descending FAA TRACON SMA TRACON (SMA)
04:06PM 39.5353 -75.2581 58° Northeast 241 277 5,000 -1,500 Descending FAA TRACON SMA TRACON (SMA)
04:06PM 39.5486 -75.2386 48° Northeast 241 277 4,500 -1,380 Descending FAA TRACON SMA TRACON (SMA)
04:06PM 39.5642 -75.2225 39° Northeast 232 267 4,100 -1,380 Descending FAA TRACON SMA TRACON (SMA)
04:07PM 39.5842 -75.2014 39° Northeast 238 274 3,600 -1,500 Descending FAA TRACON SMA TRACON (SMA)
04:07PM 39.5997 -75.1853 39° Northeast 235 270 3,100 -900 Descending FAA TRACON SMA TRACON (SMA)
04:07PM 39.6142 -75.1708 38° Northeast 232 267 3,000 -180 Descending FAA TRACON SMA TRACON (SMA)
04:08PM 39.6364 -75.1572 25° Northeast 237 273 3,000 -660 Level FAA TRACON SMA TRACON (SMA)
04:08PM 39.6542 -75.1589 356° North 218 251 2,600 -1,320 Descending FAA TRACON SMA TRACON (SMA)
04:08PM 39.6706 -75.1631 349° North 220 253 2,100 -1,320 Descending FAA TRACON SMA TRACON (SMA)
04:09PM 39.6964 -75.1703 348° North 226 260 1,700 -780 Descending FAA TRACON SMA TRACON (SMA)
04:09PM 39.7156 -75.1744 351° North 225 259 1,600 -180 Descending FAA TRACON SMA TRACON (SMA)
04:09PM 39.7328 -75.1797 347° North 208 239 1,600  Level FAA TRACON SMA TRACON (SMA)
04:10PM 39.7522 -75.1825 354° North 181 208 1,600  Level FAA TRACON SMA TRACON (SMA)